CFG6RD EDDF-LIPZ
Flight info
| Callsign | CFG6RD |
|---|---|
| Flight time | 1h 1m |
| Altitude | 31000 |
| Route | ANEKI2L ANEKI Y163 PABLA Z721 UTABA/N0443F290 M738 ADOSA L612 ALBET |
| Aircraft | A320/M-SDE3FGHIJ1LORVWXYZ/S |
Departure
| Time | 2026-05-05 13:05 |
|---|---|
| Airport | Frankfurt Main Airport (EDDF) |
Arrival
| Time | 2026-05-05 14:06 |
|---|---|
| Airport | Venice Marco Polo Airport (LIPZ) |
| Time | Latitude | Longitude | Altitude | Speed | Heading |
|---|---|---|---|---|---|
| 2026-05-05 12:09 | 50.05154 | 8.59076 | 360 ft | 0 kts | 339° |
| 2026-05-05 12:47 | 50.05141 | 8.59083 | 363 ft | 4 kts | 339° |
| 2026-05-05 12:47 | 50.05115 | 8.59098 | 359 ft | 4 kts | 339° |
| 2026-05-05 12:48 | 50.05095 | 8.59110 | 361 ft | 4 kts | 342° |
| 2026-05-05 12:48 | 50.05070 | 8.59116 | 363 ft | 4 kts | 17° |
| 2026-05-05 12:48 | 50.05052 | 8.59094 | 360 ft | 3 kts | 69° |
| 2026-05-05 12:48 | 50.05046 | 8.59070 | 363 ft | 0 kts | 69° |
| 2026-05-05 12:50 | 50.05048 | 8.59077 | 363 ft | 2 kts | 69° |
| 2026-05-05 12:51 | 50.05054 | 8.59105 | 360 ft | 3 kts | 70° |
| 2026-05-05 12:51 | 50.05068 | 8.59162 | 360 ft | 9 kts | 70° |
| 2026-05-05 12:51 | 50.05078 | 8.59247 | 362 ft | 7 kts | 98° |
| 2026-05-05 12:51 | 50.05052 | 8.59303 | 362 ft | 9 kts | 145° |
| 2026-05-05 12:52 | 50.04994 | 8.59338 | 365 ft | 8 kts | 160° |
| 2026-05-05 12:52 | 50.04944 | 8.59368 | 372 ft | 7 kts | 158° |
| 2026-05-05 12:52 | 50.04904 | 8.59401 | 368 ft | 8 kts | 147° |
| 2026-05-05 12:52 | 50.04844 | 8.59477 | 370 ft | 14 kts | 139° |
| 2026-05-05 12:53 | 50.04757 | 8.59581 | 373 ft | 16 kts | 154° |
| 2026-05-05 12:53 | 50.04644 | 8.59616 | 375 ft | 18 kts | 177° |
| 2026-05-05 12:53 | 50.04527 | 8.59622 | 376 ft | 12 kts | 179° |
| 2026-05-05 12:53 | 50.04455 | 8.59566 | 375 ft | 13 kts | 249° |
| 2026-05-05 12:54 | 50.04395 | 8.59242 | 376 ft | 18 kts | 249° |
| 2026-05-05 12:54 | 50.04349 | 8.59051 | 377 ft | 20 kts | 250° |
| 2026-05-05 12:54 | 50.04296 | 8.58829 | 373 ft | 24 kts | 249° |
| 2026-05-05 12:55 | 50.04235 | 8.58585 | 370 ft | 25 kts | 249° |
| 2026-05-05 12:55 | 50.04181 | 8.58354 | 374 ft | 18 kts | 250° |
| 2026-05-05 12:55 | 50.04134 | 8.58152 | 370 ft | 21 kts | 250° |
| 2026-05-05 12:55 | 50.04079 | 8.57921 | 370 ft | 24 kts | 249° |
| 2026-05-05 12:56 | 50.04020 | 8.57681 | 368 ft | 20 kts | 249° |
| 2026-05-05 12:56 | 50.03968 | 8.57461 | 365 ft | 23 kts | 249° |
| 2026-05-05 12:56 | 50.03911 | 8.57227 | 360 ft | 17 kts | 249° |
| 2026-05-05 12:56 | 50.03882 | 8.57104 | 359 ft | 20 kts | 249° |
| 2026-05-05 12:57 | 50.03832 | 8.56897 | 360 ft | 19 kts | 249° |
| 2026-05-05 12:57 | 50.03787 | 8.56705 | 358 ft | 20 kts | 250° |
| 2026-05-05 12:57 | 50.03723 | 8.56440 | 358 ft | 20 kts | 250° |
| 2026-05-05 12:57 | 50.03690 | 8.56298 | 356 ft | 21 kts | 249° |
| 2026-05-05 12:58 | 50.03642 | 8.56099 | 355 ft | 20 kts | 249° |
| 2026-05-05 12:58 | 50.03571 | 8.55804 | 351 ft | 24 kts | 249° |
| 2026-05-05 12:58 | 50.03532 | 8.55641 | 353 ft | 21 kts | 250° |
| 2026-05-05 12:58 | 50.03487 | 8.55456 | 348 ft | 17 kts | 250° |
| 2026-05-05 12:59 | 50.03442 | 8.55262 | 348 ft | 21 kts | 250° |
| 2026-05-05 12:59 | 50.03393 | 8.55056 | 344 ft | 17 kts | 249° |
| 2026-05-05 12:59 | 50.03352 | 8.54881 | 344 ft | 18 kts | 249° |
| 2026-05-05 13:00 | 50.03274 | 8.54558 | 336 ft | 16 kts | 250° |
| 2026-05-05 13:00 | 50.03238 | 8.54407 | 335 ft | 16 kts | 249° |
| 2026-05-05 13:01 | 50.03120 | 8.53919 | 335 ft | 18 kts | 249° |
| 2026-05-05 13:01 | 50.03079 | 8.53744 | 334 ft | 17 kts | 250° |
| 2026-05-05 13:01 | 50.03037 | 8.53569 | 334 ft | 18 kts | 249° |
| 2026-05-05 13:01 | 50.03002 | 8.53422 | 334 ft | 12 kts | 250° |
| 2026-05-05 13:02 | 50.02972 | 8.53298 | 332 ft | 13 kts | 249° |
| 2026-05-05 13:02 | 50.02948 | 8.53191 | 336 ft | 11 kts | 255° |
| 2026-05-05 13:02 | 50.02942 | 8.53064 | 337 ft | 12 kts | 269° |
| 2026-05-05 13:02 | 50.02942 | 8.52948 | 336 ft | 10 kts | 270° |
| 2026-05-05 13:03 | 50.02942 | 8.52834 | 336 ft | 11 kts | 270° |
| 2026-05-05 13:03 | 50.02941 | 8.52733 | 335 ft | 6 kts | 269° |
| 2026-05-05 13:03 | 50.02940 | 8.52678 | 335 ft | 4 kts | 269° |
| 2026-05-05 13:03 | 50.02938 | 8.52638 | 335 ft | 3 kts | 259° |
| 2026-05-05 13:04 | 50.02926 | 8.52614 | 332 ft | 3 kts | 218° |
| 2026-05-05 13:04 | 50.02896 | 8.52599 | 334 ft | 8 kts | 188° |
| 2026-05-05 13:04 | 50.02839 | 8.52599 | 334 ft | 10 kts | 180° |
| 2026-05-05 13:04 | 50.02652 | 8.52600 | 332 ft | 60 kts | 180° |
| 2026-05-05 13:05 | 50.01983 | 8.52608 | 335 ft | 130 kts | 180° |
| 2026-05-05 13:05 | 50.00915 | 8.52610 | 586 ft | 162 kts | 181° |
| 2026-05-05 13:05 | 49.99811 | 8.52641 | 1425 ft | 161 kts | 180° |
| 2026-05-05 13:05 | 49.98647 | 8.52696 | 2097 ft | 174 kts | 179° |
| 2026-05-05 13:06 | 49.97401 | 8.52769 | 2649 ft | 188 kts | 178° |
| 2026-05-05 13:06 | 49.96025 | 8.52868 | 3159 ft | 210 kts | 178° |
| 2026-05-05 13:06 | 49.94499 | 8.52987 | 3808 ft | 226 kts | 178° |
| 2026-05-05 13:06 | 49.92913 | 8.53110 | 4766 ft | 229 kts | 178° |
| 2026-05-05 13:07 | 49.91311 | 8.53228 | 5767 ft | 232 kts | 178° |
| 2026-05-05 13:07 | 49.89689 | 8.53347 | 6732 ft | 235 kts | 178° |
| 2026-05-05 13:07 | 49.88046 | 8.53466 | 7679 ft | 238 kts | 178° |
| 2026-05-05 13:07 | 49.86384 | 8.53580 | 8654 ft | 240 kts | 178° |
| 2026-05-05 13:08 | 49.84698 | 8.53695 | 9631 ft | 244 kts | 178° |
| 2026-05-05 13:08 | 49.82992 | 8.53814 | 10511 ft | 247 kts | 177° |
| 2026-05-05 13:08 | 49.81264 | 8.53934 | 11383 ft | 250 kts | 177° |
| 2026-05-05 13:08 | 49.79511 | 8.54054 | 12258 ft | 254 kts | 177° |
| 2026-05-05 13:09 | 49.77732 | 8.54099 | 13099 ft | 259 kts | 184° |
| 2026-05-05 13:09 | 49.75852 | 8.53870 | 13502 ft | 283 kts | 184° |
| 2026-05-05 13:09 | 49.73809 | 8.53600 | 13800 ft | 307 kts | 185° |
| 2026-05-05 13:09 | 49.71630 | 8.53306 | 14033 ft | 330 kts | 185° |
| 2026-05-05 13:10 | 49.69283 | 8.52984 | 14430 ft | 345 kts | 185° |
| 2026-05-05 13:10 | 49.66870 | 8.52655 | 15122 ft | 350 kts | 185° |
| 2026-05-05 13:10 | 49.64424 | 8.52326 | 15890 ft | 353 kts | 185° |
| 2026-05-05 13:10 | 49.61964 | 8.52001 | 16648 ft | 356 kts | 185° |
| 2026-05-05 13:11 | 49.59483 | 8.51675 | 17401 ft | 359 kts | 185° |
| 2026-05-05 13:11 | 49.56980 | 8.51345 | 18139 ft | 363 kts | 185° |
| 2026-05-05 13:11 | 49.54455 | 8.51012 | 18782 ft | 366 kts | 185° |
| 2026-05-05 13:11 | 49.51910 | 8.50679 | 19439 ft | 368 kts | 185° |
| 2026-05-05 13:12 | 49.49342 | 8.50346 | 20107 ft | 371 kts | 185° |
| 2026-05-05 13:12 | 49.46764 | 8.50014 | 20765 ft | 374 kts | 185° |
| 2026-05-05 13:12 | 49.44198 | 8.49681 | 21412 ft | 376 kts | 185° |
| 2026-05-05 13:12 | 49.41577 | 8.49338 | 22056 ft | 379 kts | 185° |
| 2026-05-05 13:13 | 49.38940 | 8.48989 | 22703 ft | 381 kts | 185° |
| 2026-05-05 13:13 | 49.36283 | 8.48634 | 23330 ft | 384 kts | 185° |
| 2026-05-05 13:13 | 49.33611 | 8.48278 | 23846 ft | 386 kts | 185° |
| 2026-05-05 13:13 | 49.30927 | 8.47925 | 24338 ft | 388 kts | 184° |
| 2026-05-05 13:14 | 49.28225 | 8.47578 | 24817 ft | 391 kts | 184° |
| 2026-05-05 13:14 | 49.25541 | 8.47236 | 25277 ft | 393 kts | 184° |
| 2026-05-05 13:14 | 49.22805 | 8.46886 | 25738 ft | 395 kts | 184° |
| 2026-05-05 13:14 | 49.20061 | 8.46534 | 26193 ft | 397 kts | 184° |
| 2026-05-05 13:15 | 49.17299 | 8.46177 | 26614 ft | 400 kts | 184° |
| 2026-05-05 13:15 | 49.14513 | 8.45811 | 27044 ft | 402 kts | 184° |
| 2026-05-05 13:15 | 49.11714 | 8.45443 | 27480 ft | 404 kts | 184° |
| 2026-05-05 13:15 | 49.08904 | 8.45076 | 27902 ft | 406 kts | 184° |
| 2026-05-05 13:16 | 49.06085 | 8.44615 | 28306 ft | 409 kts | 188° |
| 2026-05-05 13:16 | 49.03290 | 8.43682 | 28702 ft | 412 kts | 191° |
| 2026-05-05 13:16 | 49.00486 | 8.42702 | 29104 ft | 414 kts | 191° |
| 2026-05-05 13:16 | 48.97710 | 8.41735 | 29473 ft | 416 kts | 191° |
| 2026-05-05 13:17 | 48.94879 | 8.40751 | 29803 ft | 419 kts | 191° |
| 2026-05-05 13:17 | 48.92021 | 8.39760 | 30113 ft | 421 kts | 191° |
| 2026-05-05 13:17 | 48.89156 | 8.38764 | 30400 ft | 423 kts | 191° |
| 2026-05-05 13:17 | 48.86264 | 8.37895 | 30688 ft | 423 kts | 185° |
| 2026-05-05 13:18 | 48.83333 | 8.37834 | 30837 ft | 421 kts | 174° |
| 2026-05-05 13:18 | 48.80491 | 8.38519 | 30863 ft | 408 kts | 166° |
| 2026-05-05 13:18 | 48.77852 | 8.40020 | 30870 ft | 405 kts | 153° |
| 2026-05-05 13:18 | 48.75561 | 8.42507 | 30863 ft | 411 kts | 138° |
| 2026-05-05 13:19 | 48.73718 | 8.45918 | 30888 ft | 424 kts | 127° |
| 2026-05-05 13:19 | 48.72037 | 8.49617 | 31178 ft | 426 kts | 127° |
| 2026-05-05 13:19 | 48.70354 | 8.53250 | 31549 ft | 426 kts | 128° |
| 2026-05-05 13:19 | 48.68630 | 8.56906 | 31961 ft | 425 kts | 128° |
| 2026-05-05 13:20 | 48.66902 | 8.60530 | 32365 ft | 424 kts | 129° |
| 2026-05-05 13:20 | 48.65172 | 8.64139 | 32694 ft | 424 kts | 129° |
| 2026-05-05 13:20 | 48.63446 | 8.67738 | 32960 ft | 423 kts | 129° |
| 2026-05-05 13:20 | 48.61719 | 8.71343 | 33206 ft | 422 kts | 129° |
| 2026-05-05 13:21 | 48.59997 | 8.74937 | 33481 ft | 422 kts | 129° |
| 2026-05-05 13:21 | 48.58276 | 8.78530 | 33760 ft | 421 kts | 129° |
| 2026-05-05 13:21 | 48.56559 | 8.82114 | 34013 ft | 421 kts | 129° |
| 2026-05-05 13:21 | 48.54841 | 8.85698 | 34231 ft | 421 kts | 129° |
| 2026-05-05 13:22 | 48.53118 | 8.89286 | 34486 ft | 422 kts | 129° |
| 2026-05-05 13:22 | 48.51393 | 8.92874 | 34723 ft | 423 kts | 129° |
| 2026-05-05 13:22 | 48.49682 | 8.96428 | 34833 ft | 424 kts | 130° |
| 2026-05-05 13:22 | 48.47944 | 9.00029 | 34856 ft | 425 kts | 130° |
| 2026-05-05 13:23 | 48.44465 | 9.07232 | 34854 ft | 425 kts | 130° |
| 2026-05-05 13:23 | 48.40987 | 9.14421 | 34854 ft | 425 kts | 130° |
| 2026-05-05 13:24 | 48.37490 | 9.21615 | 34851 ft | 425 kts | 130° |
| 2026-05-05 13:24 | 48.33990 | 9.28790 | 34856 ft | 425 kts | 130° |
| 2026-05-05 13:25 | 48.30488 | 9.35958 | 34858 ft | 425 kts | 130° |
| 2026-05-05 13:25 | 48.26802 | 9.42759 | 34852 ft | 419 kts | 141° |
| 2026-05-05 13:26 | 48.21990 | 9.47481 | 34823 ft | 411 kts | 160° |
| 2026-05-05 13:26 | 48.16543 | 9.50045 | 34832 ft | 410 kts | 166° |
| 2026-05-05 13:27 | 48.11055 | 9.52433 | 34836 ft | 411 kts | 166° |
| 2026-05-05 13:27 | 48.05556 | 9.54818 | 34838 ft | 412 kts | 166° |
| 2026-05-05 13:28 | 48.00278 | 9.58196 | 34838 ft | 418 kts | 150° |
| 2026-05-05 13:28 | 47.95546 | 9.63280 | 34838 ft | 420 kts | 147° |
| 2026-05-05 13:29 | 47.90818 | 9.68399 | 34838 ft | 420 kts | 147° |
| 2026-05-05 13:29 | 47.86080 | 9.73506 | 34842 ft | 421 kts | 147° |
| 2026-05-05 13:30 | 47.81358 | 9.78571 | 34817 ft | 421 kts | 148° |
| 2026-05-05 13:30 | 47.76595 | 9.83680 | 34829 ft | 423 kts | 148° |
| 2026-05-05 13:31 | 47.71806 | 9.88809 | 34834 ft | 424 kts | 148° |
| 2026-05-05 13:31 | 47.67011 | 9.93931 | 34841 ft | 425 kts | 148° |
| 2026-05-05 13:32 | 47.62198 | 9.99048 | 34835 ft | 426 kts | 148° |
| 2026-05-05 13:32 | 47.57375 | 10.04170 | 34839 ft | 426 kts | 148° |
| 2026-05-05 13:33 | 47.52546 | 10.09295 | 34823 ft | 430 kts | 149° |
| 2026-05-05 13:33 | 47.47697 | 10.14425 | 34827 ft | 432 kts | 149° |
| 2026-05-05 13:34 | 47.42786 | 10.19556 | 34828 ft | 432 kts | 150° |
| 2026-05-05 13:34 | 47.37714 | 10.24297 | 34823 ft | 430 kts | 153° |
| 2026-05-05 13:35 | 47.32568 | 10.28837 | 34828 ft | 431 kts | 154° |
| 2026-05-05 13:35 | 47.27460 | 10.33361 | 34815 ft | 431 kts | 154° |
| 2026-05-05 13:36 | 47.22323 | 10.37959 | 34814 ft | 432 kts | 154° |
| 2026-05-05 13:36 | 47.17186 | 10.42584 | 34824 ft | 434 kts | 153° |
| 2026-05-05 13:37 | 47.12030 | 10.47224 | 34843 ft | 435 kts | 154° |
| 2026-05-05 13:37 | 47.06854 | 10.51808 | 34840 ft | 433 kts | 158° |
| 2026-05-05 13:38 | 47.01297 | 10.54870 | 34860 ft | 425 kts | 168° |
| 2026-05-05 13:38 | 46.95679 | 10.57399 | 34889 ft | 425 kts | 168° |
| 2026-05-05 13:39 | 46.90018 | 10.59951 | 34889 ft | 425 kts | 168° |
| 2026-05-05 13:39 | 46.84355 | 10.62510 | 34900 ft | 425 kts | 168° |
| 2026-05-05 13:40 | 46.78684 | 10.65071 | 34913 ft | 426 kts | 168° |
| 2026-05-05 13:40 | 46.73010 | 10.67617 | 34919 ft | 427 kts | 168° |
| 2026-05-05 13:41 | 46.67289 | 10.69799 | 34921 ft | 424 kts | 172° |
| 2026-05-05 13:41 | 46.61542 | 10.71569 | 34937 ft | 425 kts | 173° |
| 2026-05-05 13:42 | 46.55741 | 10.73338 | 34947 ft | 425 kts | 173° |
| 2026-05-05 13:42 | 46.49950 | 10.75188 | 34962 ft | 427 kts | 172° |
| 2026-05-05 13:43 | 46.44148 | 10.77097 | 34954 ft | 427 kts | 172° |
| 2026-05-05 13:43 | 46.38385 | 10.78987 | 34989 ft | 428 kts | 172° |
| 2026-05-05 13:44 | 46.32568 | 10.80873 | 35008 ft | 428 kts | 172° |
| 2026-05-05 13:44 | 46.26747 | 10.82748 | 34992 ft | 428 kts | 172° |
| 2026-05-05 13:45 | 46.23837 | 10.83679 | 34736 ft | 429 kts | 172° |
| 2026-05-05 13:45 | 46.20918 | 10.84613 | 34438 ft | 430 kts | 172° |
| 2026-05-05 13:45 | 46.17974 | 10.85556 | 33364 ft | 437 kts | 172° |
| 2026-05-05 13:45 | 46.15006 | 10.86509 | 32354 ft | 437 kts | 172° |
| 2026-05-05 13:46 | 46.12027 | 10.87465 | 31253 ft | 441 kts | 172° |
| 2026-05-05 13:46 | 46.09029 | 10.88430 | 30450 ft | 438 kts | 172° |
| 2026-05-05 13:46 | 46.06078 | 10.89385 | 29771 ft | 432 kts | 171° |
| 2026-05-05 13:46 | 46.03149 | 10.90328 | 29054 ft | 427 kts | 172° |
| 2026-05-05 13:47 | 46.00270 | 10.91251 | 28381 ft | 421 kts | 172° |
| 2026-05-05 13:47 | 45.97427 | 10.92163 | 27717 ft | 416 kts | 172° |
| 2026-05-05 13:47 | 45.94616 | 10.93063 | 27069 ft | 411 kts | 172° |
| 2026-05-05 13:47 | 45.91871 | 10.93940 | 26437 ft | 407 kts | 172° |
| 2026-05-05 13:48 | 45.89120 | 10.94821 | 25807 ft | 403 kts | 172° |
| 2026-05-05 13:48 | 45.86395 | 10.95688 | 25181 ft | 399 kts | 172° |
| 2026-05-05 13:48 | 45.83697 | 10.96540 | 24564 ft | 395 kts | 172° |
| 2026-05-05 13:48 | 45.81023 | 10.97382 | 23989 ft | 390 kts | 172° |
| 2026-05-05 13:49 | 45.79269 | 10.97933 | 23603 ft | 388 kts | 172° |
| 2026-05-05 13:49 | 45.76644 | 10.98763 | 22965 ft | 383 kts | 172° |
| 2026-05-05 13:49 | 45.74055 | 10.99585 | 22443 ft | 378 kts | 172° |
| 2026-05-05 13:49 | 45.70687 | 11.00662 | 21760 ft | 372 kts | 172° |
| 2026-05-05 13:50 | 45.68182 | 11.01545 | 21269 ft | 370 kts | 166° |
| 2026-05-05 13:50 | 45.66565 | 11.02478 | 20931 ft | 372 kts | 158° |
| 2026-05-05 13:50 | 45.64373 | 11.04459 | 20423 ft | 376 kts | 146° |
| 2026-05-05 13:50 | 45.62534 | 11.07064 | 19882 ft | 380 kts | 133° |
| 2026-05-05 13:51 | 45.61037 | 11.10211 | 19341 ft | 383 kts | 127° |
| 2026-05-05 13:51 | 45.59608 | 11.13419 | 18791 ft | 382 kts | 127° |
| 2026-05-05 13:51 | 45.58180 | 11.16610 | 18275 ft | 380 kts | 127° |
| 2026-05-05 13:51 | 45.56753 | 11.19791 | 17690 ft | 379 kts | 127° |
| 2026-05-05 13:52 | 45.55333 | 11.22936 | 17166 ft | 376 kts | 127° |
| 2026-05-05 13:52 | 45.53918 | 11.26068 | 16630 ft | 374 kts | 127° |
| 2026-05-05 13:52 | 45.52525 | 11.29151 | 16104 ft | 374 kts | 127° |
| 2026-05-05 13:52 | 45.51117 | 11.32269 | 15574 ft | 372 kts | 127° |
| 2026-05-05 13:53 | 45.49720 | 11.35356 | 15049 ft | 370 kts | 127° |
| 2026-05-05 13:53 | 45.48330 | 11.38434 | 14524 ft | 369 kts | 127° |
| 2026-05-05 13:53 | 45.46944 | 11.41499 | 14003 ft | 367 kts | 127° |
| 2026-05-05 13:53 | 45.45564 | 11.44546 | 13439 ft | 366 kts | 127° |
| 2026-05-05 13:54 | 45.44192 | 11.47570 | 13060 ft | 359 kts | 127° |
| 2026-05-05 13:54 | 45.42856 | 11.50484 | 12892 ft | 344 kts | 130° |
| 2026-05-05 13:54 | 45.41339 | 11.53047 | 12609 ft | 334 kts | 136° |
| 2026-05-05 13:54 | 45.39799 | 11.55471 | 12344 ft | 332 kts | 136° |
| 2026-05-05 13:55 | 45.38255 | 11.57903 | 12003 ft | 330 kts | 136° |
| 2026-05-05 13:55 | 45.36722 | 11.60318 | 11663 ft | 328 kts | 136° |
| 2026-05-05 13:55 | 45.35199 | 11.62723 | 11323 ft | 326 kts | 136° |
| 2026-05-05 13:55 | 45.33738 | 11.65188 | 10985 ft | 327 kts | 130° |
| 2026-05-05 13:56 | 45.32387 | 11.67776 | 10639 ft | 326 kts | 130° |
| 2026-05-05 13:56 | 45.31034 | 11.70351 | 10301 ft | 324 kts | 130° |
| 2026-05-05 13:56 | 45.29707 | 11.72868 | 10135 ft | 311 kts | 130° |
| 2026-05-05 13:56 | 45.28428 | 11.75296 | 9885 ft | 304 kts | 130° |
| 2026-05-05 13:57 | 45.27172 | 11.77677 | 9590 ft | 302 kts | 131° |
| 2026-05-05 13:57 | 45.25906 | 11.80067 | 9208 ft | 299 kts | 131° |
| 2026-05-05 13:57 | 45.24685 | 11.82381 | 9074 ft | 286 kts | 131° |
| 2026-05-05 13:57 | 45.23512 | 11.84600 | 8870 ft | 277 kts | 131° |
| 2026-05-05 13:58 | 45.22301 | 11.86707 | 8475 ft | 275 kts | 135° |
| 2026-05-05 13:58 | 45.21038 | 11.88727 | 8122 ft | 272 kts | 136° |
| 2026-05-05 13:58 | 45.19768 | 11.90744 | 7703 ft | 272 kts | 131° |
| 2026-05-05 13:58 | 45.19082 | 11.93113 | 7597 ft | 256 kts | 94° |
| 2026-05-05 13:59 | 45.20664 | 11.97242 | 6917 ft | 249 kts | 39° |
| 2026-05-05 13:59 | 45.21973 | 11.98868 | 6547 ft | 251 kts | 39° |
| 2026-05-05 14:00 | 45.24596 | 12.02131 | 5783 ft | 253 kts | 39° |
| 2026-05-05 14:00 | 45.25914 | 12.03783 | 5408 ft | 253 kts | 40° |
| 2026-05-05 14:00 | 45.27234 | 12.05444 | 5035 ft | 253 kts | 40° |
| 2026-05-05 14:00 | 45.28551 | 12.07113 | 4658 ft | 253 kts | 41° |
| 2026-05-05 14:01 | 45.29856 | 12.08773 | 4353 ft | 249 kts | 41° |
| 2026-05-05 14:01 | 45.31104 | 12.10363 | 4288 ft | 234 kts | 41° |
| 2026-05-05 14:01 | 45.32275 | 12.11853 | 4200 ft | 223 kts | 41° |
| 2026-05-05 14:01 | 45.33412 | 12.13301 | 4121 ft | 217 kts | 42° |
| 2026-05-05 14:02 | 45.34529 | 12.14725 | 3923 ft | 214 kts | 42° |
| 2026-05-05 14:02 | 45.35639 | 12.16140 | 3656 ft | 213 kts | 42° |
| 2026-05-05 14:02 | 45.36740 | 12.17545 | 3380 ft | 213 kts | 43° |
| 2026-05-05 14:02 | 45.37840 | 12.18950 | 3091 ft | 212 kts | 43° |
| 2026-05-05 14:03 | 45.38941 | 12.20356 | 2803 ft | 212 kts | 43° |
| 2026-05-05 14:03 | 45.40039 | 12.21759 | 2520 ft | 212 kts | 43° |
| 2026-05-05 14:03 | 45.41133 | 12.23159 | 2240 ft | 209 kts | 43° |
| 2026-05-05 14:03 | 45.42197 | 12.24519 | 1972 ft | 201 kts | 43° |
| 2026-05-05 14:04 | 45.43196 | 12.25796 | 1691 ft | 185 kts | 44° |
| 2026-05-05 14:04 | 45.44102 | 12.26956 | 1454 ft | 166 kts | 43° |
| 2026-05-05 14:04 | 45.44902 | 12.27980 | 1254 ft | 148 kts | 44° |
| 2026-05-05 14:04 | 45.45635 | 12.28922 | 1053 ft | 137 kts | 44° |
| 2026-05-05 14:05 | 45.46326 | 12.29812 | 855 ft | 131 kts | 43° |
| 2026-05-05 14:05 | 45.47000 | 12.30675 | 671 ft | 130 kts | 44° |
| 2026-05-05 14:05 | 45.47664 | 12.31531 | 494 ft | 128 kts | 45° |
| 2026-05-05 14:05 | 45.48326 | 12.32373 | 328 ft | 127 kts | 44° |
| 2026-05-05 14:06 | 45.48981 | 12.33221 | 198 ft | 126 kts | 45° |
| 2026-05-05 14:06 | 45.49633 | 12.34059 | 32 ft | 125 kts | 44° |
| 2026-05-05 14:06 | 45.50212 | 12.34803 | 14 ft | 91 kts | 41° |
| 2026-05-05 14:06 | 45.50558 | 12.35247 | 12 ft | 49 kts | 43° |
| 2026-05-05 14:07 | 45.50727 | 12.35461 | 16 ft | 23 kts | 39° |
| 2026-05-05 14:07 | 45.50832 | 12.35535 | 19 ft | 13 kts | 13° |
| 2026-05-05 14:07 | 45.50911 | 12.35563 | 18 ft | 12 kts | 14° |
| 2026-05-05 14:07 | 45.50986 | 12.35553 | 17 ft | 9 kts | 317° |
| 2026-05-05 14:08 | 45.50998 | 12.35482 | 17 ft | 6 kts | 263° |
| 2026-05-05 14:08 | 45.50992 | 12.35442 | 18 ft | 3 kts | 259° |
| 2026-05-05 14:08 | 45.50985 | 12.35388 | 19 ft | 8 kts | 258° |
| 2026-05-05 14:08 | 45.50974 | 12.35316 | 19 ft | 7 kts | 258° |
| 2026-05-05 14:09 | 45.50961 | 12.35244 | 21 ft | 8 kts | 252° |
| 2026-05-05 14:09 | 45.50934 | 12.35179 | 19 ft | 7 kts | 229° |
| 2026-05-05 14:09 | 45.50895 | 12.35127 | 20 ft | 9 kts | 222° |
| 2026-05-05 14:09 | 45.50828 | 12.35040 | 18 ft | 17 kts | 222° |
| 2026-05-05 14:10 | 45.50732 | 12.34917 | 16 ft | 19 kts | 222° |
| 2026-05-05 14:10 | 45.50655 | 12.34819 | 15 ft | 12 kts | 221° |
| 2026-05-05 14:10 | 45.50610 | 12.34732 | 15 ft | 11 kts | 250° |
| 2026-05-05 14:10 | 45.50603 | 12.34636 | 16 ft | 9 kts | 268° |
| 2026-05-05 14:11 | 45.50599 | 12.34548 | 16 ft | 9 kts | 266° |
| 2026-05-05 14:11 | 45.50595 | 12.34461 | 16 ft | 9 kts | 266° |
| 2026-05-05 14:11 | 45.50566 | 12.34385 | 15 ft | 9 kts | 229° |
| 2026-05-05 14:11 | 45.50552 | 12.34306 | 16 ft | 8 kts | 266° |
| 2026-05-05 14:12 | 45.50549 | 12.34231 | 16 ft | 6 kts | 266° |
| 2026-05-05 14:12 | 45.50548 | 12.34219 | 16 ft | 0 kts | 266° |
| 2026-05-05 14:15 | 45.50548 | 12.34213 | 16 ft | 0 kts | 267° |